Orange Park, Florida
Current Conditions -  °F | °C
As of 10:53 AM on Sunday 25 Jan 2015 (Local Time) from KNIP Reporting Station
Few Clouds Few Clouds  
Wind Chill: 54°   Ceiling: Unl
Heat Index: 54°   Visibility: 10mi
Dew Point: 34°   Wind: 7mph
Humidity: 47%   Direction: NA
Pressure: 30.08"   Gusts: NA
Location:  30.17°N, 81.7°W
Report Text: KNIP 251553Z VRB06KT 10SM FEW250 12/01 A3008 RMK AO2 SLP180 T01220011
Loading
Personal Weather Stations






























Interactive Weather Map New forecast layout! Learn more

10-Day Weather Forecast

Advertisements
Track Severe Weather on mobile